createdAt,value
2022-08-30T00:00:45.348Z,84.39
2022-08-30T00:07:16.336Z,84.59
2022-08-30T00:10:19.781Z,84.59
2022-08-30T00:11:30.253Z,84.69
2022-08-30T00:13:21.180Z,84.83
2022-08-30T00:15:11.773Z,85.03
2022-08-30T00:18:33.503Z,85.34
2022-08-30T00:20:08.566Z,85.24
2022-08-30T00:22:50.571Z,85.44
2022-08-30T00:29:06.157Z,85.44
2022-08-30T00:32:02.086Z,85.54
2022-08-30T00:36:13.482Z,85.68
2022-08-30T00:37:42.119Z,85.68
2022-08-30T00:39:14.814Z,85.68
2022-08-30T00:42:11.762Z,85.68
2022-08-30T00:44:44.574Z,85.88
2022-08-30T00:48:36.670Z,86.08
2022-08-30T00:53:45.406Z,86.29
2022-08-30T00:56:13.812Z,86.29
2022-08-30T00:57:49.236Z,86.19
2022-08-30T01:00:36.173Z,86.29
2022-08-30T01:03:09.606Z,86.29
2022-08-30T01:05:00.685Z,86.49
2022-08-30T01:06:51.223Z,86.43
2022-08-30T01:11:48.217Z,86.53
2022-08-30T01:14:10.446Z,86.53
2022-08-30T01:16:15.902Z,86.53
2022-08-30T01:18:51.224Z,86.53
2022-08-30T01:21:44.877Z,86.43
2022-08-30T01:27:52.193Z,86.63
2022-08-30T01:29:26.098Z,86.73
2022-08-30T01:31:28.859Z,86.63
2022-08-30T01:34:46.042Z,86.67
2022-08-30T01:36:30.069Z,86.57
2022-08-30T01:45:46.979Z,86.57
2022-08-30T01:47:25.759Z,86.47
2022-08-30T01:50:15.739Z,86.47
2022-08-30T01:52:32.985Z,86.47
2022-08-30T01:55:50.523Z,86.47
2022-08-30T01:57:20.850Z,86.47
2022-08-30T02:04:36.981Z,86.41
2022-08-30T02:06:40.147Z,86.31
2022-08-30T02:08:59.526Z,86.41
2022-08-30T02:10:25.485Z,86.41
2022-08-30T02:11:54.387Z,86.41
2022-08-30T02:17:29.935Z,86.61
2022-08-30T02:21:49.960Z,86.51
2022-08-30T02:23:51.613Z,86.61
2022-08-30T02:26:28.225Z,86.61
2022-08-30T02:28:55.443Z,86.51
2022-08-30T02:33:19.347Z,86.51
2022-08-30T02:35:08.176Z,86.65
2022-08-30T02:37:16.363Z,86.65
2022-08-30T02:39:17.181Z,86.76
2022-08-30T02:40:44.428Z,86.76
2022-08-30T02:43:04.667Z,86.76
2022-08-30T02:49:30.405Z,86.76
2022-08-30T02:50:56.619Z,86.76
2022-08-30T02:58:38.295Z,86.76
2022-08-30T03:00:39.297Z,86.76
2022-08-30T03:02:40.185Z,86.65
2022-08-30T03:10:59.356Z,86.90
2022-08-30T03:15:36.432Z,86.79
2022-08-30T03:22:09.977Z,86.79
2022-08-30T03:25:21.547Z,86.79
2022-08-30T03:28:42.373Z,86.90
2022-08-30T03:31:16.773Z,86.90
2022-08-30T03:32:46.307Z,86.90
2022-08-30T03:34:16.278Z,86.90
2022-08-30T03:35:50.278Z,87.00
2022-08-30T03:39:23.879Z,86.90
2022-08-30T03:42:21.523Z,87.00
2022-08-30T03:44:10.394Z,87.00
2022-08-30T03:50:02.875Z,87.00
2022-08-30T03:52:23.015Z,87.10
2022-08-30T03:54:58.749Z,87.10
2022-08-30T03:57:02.526Z,87.10
2022-08-30T04:01:22.338Z,87.30
2022-08-30T04:02:59.238Z,87.40
2022-08-30T04:04:47.141Z,87.45
2022-08-30T04:07:09.095Z,87.54
2022-08-30T04:09:09.437Z,87.54
2022-08-30T04:11:10.425Z,87.45
2022-08-30T04:15:32.390Z,87.54
2022-08-30T04:21:56.275Z,87.54
2022-08-30T04:28:28.084Z,87.65
2022-08-30T04:37:42.803Z,87.74
2022-08-30T04:42:05.269Z,87.65
2022-08-30T04:44:35.483Z,87.85
2022-08-30T04:46:05.248Z,87.74
2022-08-30T04:50:44.620Z,87.95
2022-08-30T04:52:34.394Z,87.95
2022-08-30T04:54:05.345Z,87.85
2022-08-30T04:55:34.520Z,87.74
2022-08-30T05:00:30.865Z,87.85
2022-08-30T05:01:59.743Z,87.74
2022-08-30T05:03:29.510Z,87.79
2022-08-30T05:10:11.160Z,87.79
2022-08-30T05:11:40.348Z,87.69
2022-08-30T05:13:35.655Z,87.59
2022-08-30T05:14:57.691Z,87.59
2022-08-30T05:17:00.079Z,87.48
2022-08-30T05:18:32.582Z,87.48
2022-08-30T05:20:08.224Z,87.48
2022-08-30T05:21:59.511Z,87.48
2022-08-30T05:24:00.469Z,87.48
2022-08-30T05:28:50.363Z,87.38
2022-08-30T05:30:21.608Z,87.38
2022-08-30T05:32:43.228Z,87.38
2022-08-30T05:34:12.316Z,87.38
2022-08-30T05:36:30.848Z,87.48
2022-08-30T05:38:52.779Z,87.45
2022-08-30T05:40:24.910Z,87.45
2022-08-30T05:44:04.702Z,87.45
2022-08-30T05:47:00.081Z,87.54
2022-08-30T05:50:24.877Z,87.65
2022-08-30T05:52:13.560Z,87.54
2022-08-30T05:58:42.027Z,87.45
2022-08-30T06:04:32.115Z,87.30
2022-08-30T06:06:20.895Z,87.30
2022-08-30T06:09:17.653Z,87.10
2022-08-30T06:10:46.565Z,87.10
2022-08-30T06:12:18.429Z,87.10
2022-08-30T06:14:15.753Z,86.49
2022-08-30T06:15:46.181Z,86.45
2022-08-30T06:17:34.506Z,86.55
2022-08-30T06:19:03.515Z,86.55
2022-08-30T06:22:12.019Z,86.35
2022-08-30T06:26:02.405Z,86.45
2022-08-30T06:29:35.381Z,86.21
2022-08-30T06:31:04.685Z,85.90
2022-08-30T06:33:35.503Z,85.80
2022-08-30T06:35:06.397Z,85.70
2022-08-30T06:37:29.460Z,85.60
2022-08-30T06:38:57.556Z,85.50
2022-08-30T06:40:28.542Z,85.10
2022-08-30T06:42:18.310Z,85.19
2022-08-30T06:46:42.117Z,84.75
2022-08-30T06:48:10.028Z,84.75
2022-08-30T06:50:30.660Z,84.55
2022-08-30T06:52:30.864Z,84.41
2022-08-30T06:54:57.143Z,83.90
2022-08-30T06:59:27.498Z,83.80
2022-08-30T07:01:26.526Z,83.70
2022-08-30T07:05:08.548Z,83.15
2022-08-30T07:07:46.045Z,83.15
2022-08-30T07:11:29.741Z,82.75
2022-08-30T07:13:00.103Z,82.55
2022-08-30T07:16:22.531Z,81.80
2022-08-30T07:19:30.723Z,81.80
2022-08-30T07:20:56.603Z,81.50
2022-08-30T07:22:28.442Z,81.05
2022-08-30T07:24:01.056Z,81.46
2022-08-30T07:25:29.016Z,81.16
2022-08-30T07:26:59.137Z,80.96
2022-08-30T07:28:36.004Z,80.96
2022-08-30T07:30:59.732Z,80.45
2022-08-30T07:33:27.336Z,79.41
2022-08-30T07:37:26.234Z,79.00
2022-08-30T07:38:58.134Z,78.59
2022-08-30T07:40:27.631Z,78.70
2022-08-30T07:43:51.260Z,77.66
2022-08-30T07:46:39.444Z,77.35
2022-08-30T07:48:08.433Z,77.55
2022-08-30T07:49:39.184Z,77.55
2022-08-30T07:51:10.329Z,76.64
2022-08-30T07:55:16.071Z,77.21
2022-08-30T07:58:06.094Z,76.10
2022-08-30T08:00:00.600Z,75.06
2022-08-30T08:01:32.641Z,75.26
2022-08-30T08:03:21.206Z,75.36
2022-08-30T08:09:56.477Z,73.52
2022-08-30T08:12:43.915Z,71.70
2022-08-30T08:14:43.872Z,71.60
2022-08-30T08:17:42.090Z,70.76
2022-08-30T08:20:33.092Z,70.16
2022-08-30T08:23:01.927Z,70.36
2022-08-30T08:32:01.739Z,68.78
2022-08-30T08:34:03.778Z,68.18
2022-08-30T08:44:10.657Z,66.03
2022-08-30T08:46:14.586Z,65.33
2022-08-30T08:49:04.274Z,66.41
2022-08-30T08:52:53.518Z,65.60
2022-08-30T08:56:46.785Z,65.88
2022-08-30T09:02:47.692Z,64.37
2022-08-30T09:04:20.696Z,64.14
2022-08-30T09:06:46.443Z,63.93
2022-08-30T09:19:58.322Z,61.50
2022-08-30T09:22:30.205Z,62.10
2022-08-30T09:25:00.138Z,61.80
2022-08-30T09:33:43.851Z,61.17
2022-08-30T09:36:40.619Z,62.27
2022-08-30T09:38:45.090Z,62.47
2022-08-30T09:41:13.236Z,60.97
2022-08-30T09:42:41.464Z,61.47
2022-08-30T09:46:38.588Z,59.13
2022-08-30T09:48:09.188Z,58.13
2022-08-30T09:49:38.468Z,57.53
2022-08-30T09:51:09.498Z,58.23
2022-08-30T09:53:03.476Z,59.50
2022-08-30T09:54:31.780Z,59.81
2022-08-30T09:57:54.639Z,59.58
2022-08-30T10:02:10.646Z,57.68
2022-08-30T10:05:55.645Z,57.85
2022-08-30T10:14:40.659Z,57.72
2022-08-30T10:16:12.722Z,57.62
2022-08-30T10:18:43.390Z,57.39
2022-08-30T10:20:41.360Z,57.26
2022-08-30T10:25:06.067Z,54.44
2022-08-30T10:28:35.546Z,53.64
2022-08-30T10:30:04.909Z,54.11
2022-08-30T10:34:08.571Z,54.02
2022-08-30T10:35:38.983Z,53.31
2022-08-30T10:37:12.041Z,53.59
2022-08-30T10:41:31.593Z,54.49
2022-08-30T10:44:39.793Z,53.36
2022-08-30T10:48:05.429Z,51.84
2022-08-30T10:51:12.256Z,51.65
2022-08-30T10:53:07.254Z,52.51
2022-08-30T10:56:39.343Z,51.59
2022-08-30T11:02:17.558Z,52.37
2022-08-30T11:08:22.017Z,51.45
2022-08-30T11:12:08.213Z,51.05
2022-08-30T11:19:00.212Z,50.03
2022-08-30T11:21:01.110Z,49.53
2022-08-30T11:23:50.817Z,48.41
2022-08-30T11:25:20.764Z,49.13
2022-08-30T11:27:51.698Z,49.23
2022-08-30T11:29:19.865Z,49.04
2022-08-30T11:31:50.097Z,49.41
2022-08-30T11:33:53.166Z,48.91
2022-08-30T11:40:38.225Z,48.47
2022-08-30T11:42:09.855Z,48.86
2022-08-30T11:52:30.235Z,48.52
2022-08-30T11:56:20.285Z,47.21
2022-08-30T11:58:19.084Z,46.39
2022-08-30T11:59:49.087Z,46.51
2022-08-30T12:03:37.043Z,46.39
2022-08-30T12:05:36.761Z,46.00
2022-08-30T12:07:36.178Z,47.56
2022-08-30T12:10:04.928Z,45.57
2022-08-30T12:11:33.861Z,44.59
2022-08-30T12:13:51.825Z,45.78
2022-08-30T12:15:41.669Z,45.68
2022-08-30T12:18:15.368Z,46.84
2022-08-30T12:20:15.441Z,44.27
2022-08-30T12:21:45.111Z,43.97
2022-08-30T12:25:24.796Z,44.15
2022-08-30T12:28:00.588Z,46.30
2022-08-30T12:31:15.830Z,43.13
2022-08-30T12:33:52.243Z,43.43
2022-08-30T12:37:27.260Z,45.43
2022-08-30T12:38:54.763Z,43.73
2022-08-30T12:41:14.464Z,42.74
2022-08-30T12:42:44.454Z,43.53
2022-08-30T12:44:45.834Z,42.84
2022-08-30T12:48:48.613Z,42.32
2022-08-30T12:53:51.305Z,41.71
2022-08-30T12:56:50.052Z,43.29
2022-08-30T13:02:20.136Z,42.19
2022-08-30T13:05:06.613Z,41.49
2022-08-30T13:09:07.237Z,40.61
2022-08-30T13:11:08.347Z,42.48
2022-08-30T13:13:04.434Z,41.69
2022-08-30T13:15:34.420Z,41.71
2022-08-30T13:17:52.112Z,44.78
2022-08-30T13:33:02.415Z,41.99
2022-08-30T13:34:31.253Z,41.59
2022-08-30T13:36:49.666Z,41.79
2022-08-30T13:38:19.686Z,41.79
2022-08-30T13:41:20.621Z,42.48
2022-08-30T13:43:25.602Z,41.61
2022-08-30T13:46:18.112Z,41.41
2022-08-30T13:54:09.056Z,41.12
2022-08-30T13:57:08.245Z,41.41
2022-08-30T13:59:07.086Z,42.11
2022-08-30T14:02:12.006Z,42.01
2022-08-30T14:05:30.747Z,41.22
2022-08-30T14:10:46.450Z,41.69
2022-08-30T14:11:51.990Z,41.10
2022-08-30T14:22:23.948Z,41.00
2022-08-30T14:23:53.889Z,41.02
2022-08-30T14:27:50.568Z,41.44
2022-08-30T14:30:10.298Z,41.36
2022-08-30T14:33:07.368Z,41.93
2022-08-30T14:35:37.145Z,40.84
2022-08-30T14:37:06.325Z,41.12
2022-08-30T14:41:04.468Z,39.58
2022-08-30T14:43:02.988Z,38.45
2022-08-30T14:47:04.930Z,38.96
2022-08-30T14:49:13.504Z,38.85
2022-08-30T14:52:09.368Z,38.08
2022-08-30T14:58:37.208Z,38.26
2022-08-30T15:00:06.094Z,38.75
2022-08-30T15:03:04.696Z,40.23
2022-08-30T15:06:32.141Z,38.56
2022-08-30T15:08:00.906Z,40.23
2022-08-30T15:09:29.806Z,39.65
2022-08-30T15:11:00.654Z,40.27
2022-08-30T15:13:26.827Z,39.28
2022-08-30T15:20:18.275Z,40.53
2022-08-30T15:26:38.534Z,40.96
2022-08-30T15:30:06.392Z,41.67
2022-08-30T15:32:05.341Z,41.30
2022-08-30T15:35:03.851Z,42.11
2022-08-30T15:37:28.761Z,42.52
2022-08-30T15:40:07.332Z,42.43
2022-08-30T15:41:37.691Z,42.35
2022-08-30T15:44:06.930Z,42.25
2022-08-30T15:46:05.905Z,42.27
2022-08-30T15:48:06.018Z,42.86
2022-08-30T15:51:03.709Z,42.86
2022-08-30T15:53:52.388Z,43.06
2022-08-30T16:00:08.710Z,43.68
2022-08-30T16:02:41.052Z,43.58
2022-08-30T16:05:39.984Z,44.87
2022-08-30T16:07:40.412Z,43.68
2022-08-30T16:15:27.130Z,44.10
2022-08-30T16:17:25.936Z,44.40
2022-08-30T16:20:04.891Z,44.59
2022-08-30T16:22:35.142Z,43.70
2022-08-30T16:24:04.330Z,43.70
2022-08-30T16:25:39.887Z,43.82
2022-08-30T16:27:02.329Z,43.92
2022-08-30T16:29:32.887Z,44.71
2022-08-30T16:31:33.028Z,44.92
2022-08-30T16:46:16.635Z,44.74
2022-08-30T16:55:28.495Z,44.76
2022-08-30T16:57:01.715Z,45.45
2022-08-30T16:58:52.860Z,44.36
2022-08-30T17:00:47.912Z,44.38
2022-08-30T17:05:19.036Z,45.78
2022-08-30T17:07:21.340Z,44.98
2022-08-30T17:08:48.357Z,44.98
2022-08-30T17:10:23.107Z,44.68
2022-08-30T17:12:17.220Z,44.58
2022-08-30T17:17:12.248Z,44.70
2022-08-30T17:21:58.429Z,44.70
2022-08-30T17:23:28.432Z,44.90
2022-08-30T17:24:56.946Z,45.20
2022-08-30T17:34:00.522Z,46.09
2022-08-30T17:43:19.194Z,46.51
2022-08-30T17:46:06.829Z,47.61
2022-08-30T17:47:36.559Z,48.50
2022-08-30T17:49:55.394Z,46.73
2022-08-30T17:51:45.147Z,46.04
2022-08-30T17:54:25.723Z,46.54
2022-08-30T18:02:52.489Z,48.25
2022-08-30T18:05:11.976Z,48.55
2022-08-30T18:09:38.883Z,48.38
2022-08-30T18:19:46.486Z,48.80
2022-08-30T18:21:13.220Z,48.80
2022-08-30T18:23:12.077Z,50.30
2022-08-30T18:25:53.721Z,51.40
2022-08-30T18:27:19.736Z,50.12
2022-08-30T18:30:19.618Z,51.82
2022-08-30T18:31:49.489Z,52.12
2022-08-30T18:34:16.210Z,52.72
2022-08-30T18:40:48.390Z,52.84
2022-08-30T18:42:16.034Z,51.47
2022-08-30T18:45:46.416Z,51.07
2022-08-30T18:47:46.271Z,51.87
2022-08-30T18:49:16.869Z,51.67
2022-08-30T18:51:07.937Z,51.79
2022-08-30T18:54:34.092Z,52.29
2022-08-30T19:03:44.291Z,53.82
2022-08-30T19:05:43.866Z,54.72
2022-08-30T19:07:18.921Z,54.72
2022-08-30T19:11:09.703Z,55.24
2022-08-30T19:16:12.009Z,56.15
2022-08-30T19:28:48.687Z,57.28
2022-08-30T19:30:51.268Z,57.17
2022-08-30T19:32:22.585Z,57.48
2022-08-30T19:37:35.313Z,58.07
2022-08-30T19:45:35.825Z,58.70
2022-08-30T19:47:08.381Z,58.70
2022-08-30T19:50:26.567Z,59.11
2022-08-30T19:54:03.558Z,59.44
2022-08-30T19:59:44.118Z,60.03
2022-08-30T20:07:04.232Z,60.24
2022-08-30T20:09:26.398Z,60.77
2022-08-30T20:10:56.071Z,60.97
2022-08-30T20:21:13.428Z,62.10
2022-08-30T20:23:56.262Z,62.40
2022-08-30T20:26:33.605Z,62.60
2022-08-30T20:28:31.109Z,63.00
2022-08-30T20:33:16.749Z,63.50
2022-08-30T20:38:00.067Z,64.04
2022-08-30T20:41:30.314Z,64.64
2022-08-30T20:44:20.465Z,64.94
2022-08-30T20:46:42.223Z,65.14
2022-08-30T20:50:04.812Z,65.54
2022-08-30T20:51:34.975Z,65.77
2022-08-30T20:55:23.059Z,66.08
2022-08-30T20:57:15.860Z,66.47
2022-08-30T20:58:45.977Z,66.58
2022-08-30T21:10:23.357Z,67.41
2022-08-30T21:17:42.558Z,67.82
2022-08-30T21:19:43.988Z,67.82
2022-08-30T21:21:11.025Z,68.02
2022-08-30T21:22:39.899Z,68.12
2022-08-30T21:24:08.799Z,68.12
2022-08-30T21:26:39.938Z,68.35
2022-08-30T21:29:10.937Z,68.45
2022-08-30T21:32:05.402Z,68.65
2022-08-30T21:36:56.626Z,68.75
2022-08-30T21:43:38.481Z,69.06
2022-08-30T21:48:42.517Z,69.38
2022-08-30T21:51:15.472Z,69.18
2022-08-30T21:55:24.726Z,69.38
2022-08-30T21:57:13.440Z,69.49
2022-08-30T22:02:53.280Z,69.69
2022-08-30T22:04:56.717Z,69.82
2022-08-30T22:08:05.124Z,70.03
2022-08-30T22:09:35.715Z,70.12
2022-08-30T22:12:46.290Z,70.03
2022-08-30T22:14:46.366Z,70.03
2022-08-30T22:18:17.920Z,70.03
2022-08-30T22:20:47.091Z,70.32
2022-08-30T22:25:25.497Z,70.16
2022-08-30T22:30:12.934Z,70.26
2022-08-30T22:39:06.248Z,70.26
2022-08-30T22:43:43.570Z,70.56
2022-08-30T22:52:14.687Z,70.46
2022-08-30T23:00:54.943Z,70.50
2022-08-30T23:04:49.048Z,70.39
2022-08-30T23:07:36.781Z,70.59
2022-08-30T23:10:08.969Z,70.50
2022-08-30T23:12:38.724Z,70.59
2022-08-30T23:24:11.060Z,69.92
2022-08-30T23:26:59.843Z,69.82
2022-08-30T23:29:21.451Z,69.82
2022-08-30T23:36:30.553Z,69.42
2022-08-30T23:44:57.406Z,69.25
2022-08-30T23:47:49.739Z,68.85
2022-08-30T23:49:44.676Z,68.95
2022-08-30T23:51:44.496Z,68.95
2022-08-30T23:55:51.112Z,68.74
2022-08-30T23:57:50.943Z,68.65
2022-08-30T23:59:21.446Z,68.54
